createdAt,value
2022-09-14T00:01:30.809Z,2.00
2022-09-14T00:04:00.274Z,1.75
2022-09-14T00:06:29.455Z,2.30
2022-09-14T00:09:00.702Z,1.95
2022-09-14T00:11:31.725Z,2.00
2022-09-14T00:14:00.751Z,1.92
2022-09-14T00:16:30.125Z,1.92
2022-09-14T00:19:00.322Z,2.15
2022-09-14T00:21:29.557Z,2.50
2022-09-14T00:23:58.101Z,2.15
2022-09-14T00:26:26.838Z,1.90
2022-09-14T00:28:57.100Z,2.42
2022-09-14T00:31:26.280Z,2.25
2022-09-14T00:33:55.094Z,2.28
2022-09-14T00:36:24.549Z,2.33
2022-09-14T00:38:53.214Z,2.30
2022-09-14T00:41:23.479Z,1.90
2022-09-14T00:43:57.947Z,2.17
2022-09-14T00:46:27.680Z,2.00
2022-09-14T00:48:56.464Z,2.00
2022-09-14T00:51:25.583Z,2.13
2022-09-14T00:53:55.472Z,2.10
2022-09-14T00:56:23.905Z,2.08
2022-09-14T00:58:53.849Z,2.50
2022-09-14T01:01:23.695Z,2.20
2022-09-14T01:03:52.177Z,2.60
2022-09-14T01:06:23.751Z,2.30
2022-09-14T01:09:04.797Z,2.20
2022-09-14T01:11:51.792Z,2.45
2022-09-14T01:14:26.983Z,2.30
2022-09-14T01:17:01.105Z,2.30
2022-09-14T01:19:33.696Z,2.85
2022-09-14T01:22:07.208Z,2.20
2022-09-14T01:24:39.535Z,1.90
2022-09-14T01:27:31.914Z,2.80
2022-09-14T01:30:06.671Z,2.10
2022-09-14T01:32:37.923Z,2.33
2022-09-14T01:35:12.082Z,2.40
2022-09-14T01:37:44.680Z,2.47
2022-09-14T01:40:16.816Z,2.67
2022-09-14T01:42:46.760Z,2.28
2022-09-14T01:45:19.068Z,2.67
2022-09-14T01:47:50.024Z,2.40
2022-09-14T01:50:21.028Z,2.67
2022-09-14T01:52:53.853Z,2.50
2022-09-14T01:55:24.414Z,2.45
2022-09-14T01:57:53.955Z,2.60
2022-09-14T02:00:24.283Z,2.30
2022-09-14T02:02:55.803Z,2.35
2022-09-14T02:05:28.405Z,2.30
2022-09-14T02:07:57.187Z,2.70
2022-09-14T02:10:25.990Z,2.58
2022-09-14T02:12:54.882Z,2.20
2022-09-14T02:15:26.284Z,2.72
2022-09-14T02:17:54.939Z,2.53
2022-09-14T02:20:24.785Z,2.88
2022-09-14T02:22:53.953Z,2.42
2022-09-14T02:25:22.690Z,2.28
2022-09-14T02:27:51.625Z,2.72
2022-09-14T02:30:20.818Z,2.97
2022-09-14T02:32:55.276Z,2.25
2022-09-14T02:35:27.513Z,2.33
2022-09-14T02:38:02.616Z,2.42
2022-09-14T02:40:34.497Z,2.63
2022-09-14T02:43:07.386Z,2.53
2022-09-14T02:45:38.291Z,2.70
2022-09-14T02:48:11.959Z,2.45
2022-09-14T02:50:42.611Z,2.70
2022-09-14T02:53:14.663Z,2.33
2022-09-14T02:55:45.610Z,2.45
2022-09-14T02:58:15.017Z,2.65
2022-09-14T03:00:45.085Z,2.83
2022-09-14T03:03:15.955Z,2.67
2022-09-14T03:05:44.604Z,2.65
2022-09-14T03:08:13.334Z,2.10
2022-09-14T03:10:43.789Z,2.40
2022-09-14T03:13:12.665Z,2.15
2022-09-14T03:15:41.464Z,2.28
2022-09-14T03:18:14.077Z,2.08
2022-09-14T03:20:44.895Z,2.28
2022-09-14T03:23:13.736Z,2.53
2022-09-14T03:25:43.705Z,2.30
2022-09-14T03:28:12.802Z,2.47
2022-09-14T03:30:41.312Z,2.78
2022-09-14T03:33:09.685Z,2.53
2022-09-14T03:35:38.096Z,2.13
2022-09-14T03:38:08.103Z,2.25
2022-09-14T03:40:36.545Z,2.75
2022-09-14T03:43:04.949Z,2.13
2022-09-14T03:45:33.330Z,2.33
2022-09-14T03:48:01.663Z,2.50
2022-09-14T03:50:30.085Z,2.03
2022-09-14T03:52:58.396Z,2.08
2022-09-14T03:55:28.193Z,2.30
2022-09-14T03:57:56.569Z,2.50
2022-09-14T04:00:25.541Z,2.00
2022-09-14T04:02:54.039Z,2.05
2022-09-14T04:05:22.445Z,2.15
2022-09-14T04:07:50.780Z,2.28
2022-09-14T04:10:19.201Z,2.20
2022-09-14T04:12:48.902Z,2.42
2022-09-14T04:15:17.362Z,2.20
2022-09-14T04:17:45.727Z,2.65
2022-09-14T04:20:14.114Z,2.00
2022-09-14T04:22:42.430Z,2.38
2022-09-14T04:25:10.929Z,2.30
2022-09-14T04:27:39.402Z,2.60
2022-09-14T04:30:09.783Z,2.45
2022-09-14T04:32:38.111Z,2.05
2022-09-14T04:35:06.730Z,2.40
2022-09-14T04:37:35.340Z,2.17
2022-09-14T04:40:04.097Z,2.40
2022-09-14T04:42:32.533Z,2.78
2022-09-14T04:45:01.137Z,2.28
2022-09-14T04:47:31.869Z,2.30
2022-09-14T04:50:00.216Z,2.65
2022-09-14T04:52:28.533Z,2.65
2022-09-14T04:54:56.890Z,2.55
2022-09-14T04:57:25.341Z,2.83
2022-09-14T04:59:53.700Z,2.75
2022-09-14T05:02:22.343Z,3.17
2022-09-14T05:04:52.672Z,3.08
2022-09-14T05:07:21.018Z,3.08
2022-09-14T05:09:49.364Z,3.15
2022-09-14T05:12:17.721Z,3.05
2022-09-14T05:14:46.072Z,2.90
2022-09-14T05:17:14.436Z,2.92
2022-09-14T05:19:42.802Z,2.80
2022-09-14T05:22:12.493Z,2.88
2022-09-14T05:24:40.849Z,3.13
2022-09-14T05:27:09.349Z,2.63
2022-09-14T05:29:40.355Z,3.50
2022-09-14T05:32:08.925Z,2.85
2022-09-14T05:34:37.529Z,3.50
2022-09-14T05:37:05.866Z,2.80
2022-09-14T05:39:35.580Z,2.75
2022-09-14T05:42:03.893Z,2.80
2022-09-14T05:44:32.264Z,3.03
2022-09-14T05:47:00.569Z,3.08
2022-09-14T05:49:28.891Z,2.92
2022-09-14T05:51:57.204Z,3.20
2022-09-14T05:54:26.724Z,2.80
2022-09-14T05:56:56.440Z,2.95
2022-09-14T05:59:24.795Z,2.80
2022-09-14T06:01:53.182Z,3.85
2022-09-14T06:04:21.684Z,3.08
2022-09-14T06:07:14.492Z,2.78
2022-09-14T06:09:38.377Z,2.67
2022-09-14T06:12:08.448Z,3.22
2022-09-14T06:14:36.803Z,3.17
2022-09-14T06:17:05.766Z,3.13
2022-09-14T06:19:34.194Z,3.20
2022-09-14T06:22:02.699Z,2.95
2022-09-14T06:24:31.076Z,4.00
2022-09-14T06:26:59.402Z,3.38
2022-09-14T06:29:29.109Z,3.47
2022-09-14T06:31:57.461Z,3.38
2022-09-14T06:34:25.855Z,3.70
2022-09-14T06:36:54.223Z,3.88
2022-09-14T06:39:22.666Z,3.83
2022-09-14T06:41:51.921Z,4.00
2022-09-14T06:44:20.291Z,4.25
2022-09-14T06:46:50.005Z,3.90
2022-09-14T06:49:23.167Z,3.00
2022-09-14T06:51:51.974Z,4.05
2022-09-14T06:54:20.576Z,3.22
2022-09-14T06:56:49.149Z,3.75
2022-09-14T06:59:18.191Z,3.92
2022-09-14T07:01:46.860Z,4.47
2022-09-14T07:04:16.709Z,3.92
2022-09-14T07:06:45.996Z,4.10
2022-09-14T07:09:14.779Z,4.25
2022-09-14T07:11:43.595Z,4.55
2022-09-14T07:14:12.540Z,4.55
2022-09-14T07:16:41.540Z,4.47
2022-09-14T07:19:11.656Z,5.05
2022-09-14T07:21:41.680Z,4.85
2022-09-14T07:24:10.054Z,5.10
2022-09-14T07:26:41.706Z,4.40
2022-09-14T07:29:21.842Z,4.57
2022-09-14T07:31:51.020Z,4.32
2022-09-14T07:34:19.789Z,4.38
2022-09-14T07:36:49.717Z,5.22
2022-09-14T07:39:19.070Z,4.13
2022-09-14T07:41:49.026Z,4.32
2022-09-14T07:44:18.722Z,4.00
2022-09-14T07:46:47.717Z,4.22
2022-09-14T07:49:17.233Z,4.78
2022-09-14T07:51:46.144Z,4.90
2022-09-14T07:54:16.590Z,3.90
2022-09-14T07:56:45.465Z,4.03
2022-09-14T07:59:34.923Z,4.32
2022-09-14T08:02:03.133Z,4.18
2022-09-14T08:04:31.613Z,4.85
2022-09-14T08:07:00.800Z,4.88
2022-09-14T08:09:30.666Z,4.55
2022-09-14T08:11:59.076Z,4.47
2022-09-14T08:14:27.457Z,4.10
2022-09-14T08:16:55.837Z,4.00
2022-09-14T08:19:24.215Z,3.92
2022-09-14T08:21:52.555Z,4.03
2022-09-14T08:24:21.942Z,11.25
2022-09-14T08:26:51.765Z,6.03
2022-09-14T08:29:20.940Z,4.47
2022-09-14T08:31:51.649Z,3.60
2022-09-14T08:34:20.424Z,3.72
2022-09-14T08:36:49.242Z,3.80
2022-09-14T08:39:18.181Z,3.60
2022-09-14T08:41:50.723Z,3.72
2022-09-14T08:44:22.733Z,3.47
2022-09-14T08:46:55.453Z,4.15
2022-09-14T08:49:26.647Z,3.30
2022-09-14T08:51:54.986Z,3.25
2022-09-14T08:54:23.395Z,2.95
2022-09-14T08:56:55.720Z,3.53
2022-09-14T08:59:34.299Z,3.53
2022-09-14T09:02:07.954Z,3.53
2022-09-14T09:04:43.972Z,3.40
2022-09-14T09:07:14.924Z,3.03
2022-09-14T09:09:45.830Z,3.20
2022-09-14T09:12:15.372Z,3.03
2022-09-14T09:14:48.197Z,2.53
2022-09-14T09:17:18.407Z,3.35
2022-09-14T09:19:53.379Z,3.10
2022-09-14T09:22:23.621Z,3.20
2022-09-14T09:24:53.516Z,3.05
2022-09-14T09:27:22.017Z,3.53
2022-09-14T09:29:51.721Z,3.10
2022-09-14T09:32:21.184Z,3.25
2022-09-14T09:34:49.880Z,3.40
2022-09-14T09:37:19.564Z,3.28
2022-09-14T09:39:48.261Z,3.50
2022-09-14T09:42:19.800Z,3.40
2022-09-14T09:45:06.013Z,3.60
2022-09-14T09:47:36.749Z,3.63
2022-09-14T09:50:06.046Z,3.72
2022-09-14T09:52:37.405Z,3.30
2022-09-14T09:55:07.422Z,3.38
2022-09-14T09:57:36.973Z,3.58
2022-09-14T10:00:14.175Z,3.55
2022-09-14T10:02:43.886Z,3.38
2022-09-14T10:05:20.875Z,3.10
2022-09-14T10:07:53.778Z,3.22
2022-09-14T10:10:23.492Z,3.28
2022-09-14T10:12:52.675Z,3.45
2022-09-14T10:15:25.717Z,3.35
2022-09-14T10:18:11.858Z,3.20
2022-09-14T10:20:42.541Z,3.40
2022-09-14T10:23:23.440Z,4.60
2022-09-14T10:25:52.508Z,4.13
2022-09-14T10:28:22.635Z,3.60
2022-09-14T10:30:52.473Z,3.55
2022-09-14T10:33:20.969Z,3.17
2022-09-14T10:35:56.286Z,3.53
2022-09-14T10:38:30.968Z,3.55
2022-09-14T10:41:05.233Z,3.85
2022-09-14T10:43:39.282Z,3.30
2022-09-14T10:46:10.881Z,3.13
2022-09-14T10:48:54.064Z,3.60
2022-09-14T10:51:31.766Z,3.17
2022-09-14T10:54:04.783Z,3.85
2022-09-14T10:56:46.065Z,3.72
2022-09-14T10:59:19.773Z,3.50
2022-09-14T11:02:01.525Z,3.90
2022-09-14T11:04:38.308Z,4.07
2022-09-14T11:07:12.427Z,4.60
2022-09-14T11:09:43.986Z,4.78
2022-09-14T11:12:14.484Z,5.65
2022-09-14T11:14:49.707Z,4.80
2022-09-14T11:17:27.510Z,4.38
2022-09-14T11:20:02.427Z,4.88
2022-09-14T11:22:37.163Z,5.32
2022-09-14T11:25:08.720Z,4.80
2022-09-14T11:27:41.471Z,5.68
2022-09-14T11:30:13.369Z,5.38
2022-09-14T11:32:44.173Z,5.53
2022-09-14T11:35:17.332Z,5.38
2022-09-14T11:37:49.407Z,5.13
2022-09-14T11:40:20.206Z,5.53
2022-09-14T11:42:52.529Z,4.80
2022-09-14T11:45:24.259Z,4.50
2022-09-14T11:47:57.335Z,3.83
2022-09-14T11:50:27.471Z,3.47
2022-09-14T11:53:02.054Z,3.20
2022-09-14T11:55:30.546Z,3.30
2022-09-14T11:57:59.974Z,3.33
2022-09-14T12:01:01.814Z,3.63
2022-09-14T12:04:03.327Z,3.13
2022-09-14T12:06:48.691Z,3.10
2022-09-14T12:09:35.568Z,2.45
2022-09-14T12:12:08.370Z,2.47
2022-09-14T12:14:40.646Z,2.15
2022-09-14T12:20:26.469Z,1.75
2022-09-14T12:23:05.715Z,2.50
2022-09-14T12:25:34.152Z,2.25
2022-09-14T12:28:04.503Z,2.00
2022-09-14T12:30:40.570Z,2.40
2022-09-14T12:33:29.722Z,2.40
2022-09-14T12:35:58.173Z,2.25
2022-09-14T12:39:05.638Z,2.40
2022-09-14T12:41:52.816Z,2.50
2022-09-14T12:44:33.423Z,2.35
2022-09-14T12:47:31.833Z,2.42
2022-09-14T12:50:10.634Z,2.38
2022-09-14T12:52:43.533Z,2.50
2022-09-14T12:55:21.444Z,2.30
2022-09-14T12:57:56.241Z,2.38
2022-09-14T13:00:26.654Z,2.40
2022-09-14T13:03:01.985Z,1.70
2022-09-14T13:05:33.803Z,2.25
2022-09-14T13:08:02.504Z,2.13
2022-09-14T13:10:32.795Z,1.85
2022-09-14T13:13:02.119Z,1.92
2022-09-14T13:15:33.298Z,1.80
2022-09-14T13:18:02.795Z,2.05
2022-09-14T13:20:33.197Z,1.70
2022-09-14T13:23:01.609Z,1.63
2022-09-14T13:25:32.601Z,1.60
2022-09-14T13:28:01.995Z,1.90
2022-09-14T13:30:31.644Z,1.83
2022-09-14T13:33:00.561Z,1.88
2022-09-14T13:35:35.640Z,1.80
2022-09-14T13:38:08.949Z,1.90
2022-09-14T13:40:37.419Z,2.10
2022-09-14T13:43:05.903Z,2.17
2022-09-14T13:45:35.130Z,2.33
2022-09-14T13:48:03.714Z,2.10
2022-09-14T13:50:32.108Z,2.65
2022-09-14T13:53:03.718Z,2.35
2022-09-14T13:55:43.890Z,2.65
2022-09-14T13:58:16.655Z,2.60
2022-09-14T14:00:49.560Z,2.47
2022-09-14T14:03:23.249Z,2.50
2022-09-14T14:05:51.708Z,2.40
2022-09-14T14:08:27.614Z,2.60
2022-09-14T14:10:56.756Z,2.60
2022-09-14T14:13:28.399Z,2.50
2022-09-14T14:16:14.441Z,2.42
2022-09-14T14:18:43.878Z,3.38
2022-09-14T14:21:16.910Z,2.63
2022-09-14T14:24:09.264Z,2.60
2022-09-14T14:26:35.057Z,2.75
2022-09-14T14:29:09.656Z,2.65
2022-09-14T14:31:38.131Z,2.72
2022-09-14T14:34:13.035Z,3.13
2022-09-14T14:36:41.384Z,2.95
2022-09-14T14:39:11.214Z,2.88
2022-09-14T14:41:39.606Z,3.15
2022-09-14T14:44:08.776Z,2.60
2022-09-14T14:46:37.451Z,2.90
2022-09-14T14:49:05.978Z,3.13
2022-09-14T14:51:34.278Z,3.30
2022-09-14T14:54:02.620Z,2.95
2022-09-14T14:56:32.344Z,2.67
2022-09-14T14:59:02.338Z,3.33
2022-09-14T15:01:31.367Z,3.25
2022-09-14T15:03:59.873Z,2.95
2022-09-14T15:06:29.233Z,3.10
2022-09-14T15:08:58.226Z,3.25
2022-09-14T15:11:26.570Z,3.53
2022-09-14T15:13:56.299Z,3.90
2022-09-14T15:16:24.811Z,3.78
2022-09-14T15:18:53.207Z,3.47
2022-09-14T15:21:21.535Z,4.30
2022-09-14T15:23:50.512Z,3.20
2022-09-14T15:26:18.848Z,3.70
2022-09-14T15:28:48.679Z,3.38
2022-09-14T15:31:18.435Z,3.80
2022-09-14T15:33:46.789Z,3.42
2022-09-14T15:36:15.142Z,3.70
2022-09-14T15:38:43.563Z,3.50
2022-09-14T15:41:13.582Z,3.20
2022-09-14T15:43:41.896Z,3.25
2022-09-14T15:46:10.321Z,3.53
2022-09-14T15:48:41.989Z,3.72
2022-09-14T15:51:11.879Z,3.83
2022-09-14T15:53:40.528Z,3.72
2022-09-14T15:56:11.504Z,3.95
2022-09-14T15:58:40.698Z,4.22
2022-09-14T16:01:11.422Z,3.83
2022-09-14T16:03:42.662Z,3.25
2022-09-14T16:06:11.395Z,4.32
2022-09-14T16:08:40.124Z,4.40
2022-09-14T16:11:09.301Z,4.40
2022-09-14T16:13:38.149Z,4.18
2022-09-14T16:16:07.395Z,4.45
2022-09-14T16:18:35.925Z,3.88
2022-09-14T16:21:10.165Z,4.43
2022-09-14T16:23:39.449Z,4.22
2022-09-14T16:26:10.282Z,3.80
2022-09-14T16:28:38.912Z,3.58
2022-09-14T16:31:08.272Z,3.80
2022-09-14T16:33:40.255Z,3.80
2022-09-14T16:36:11.470Z,3.50
2022-09-14T16:38:39.928Z,3.95
2022-09-14T16:41:08.615Z,3.70
2022-09-14T16:43:37.258Z,3.92
2022-09-14T16:46:06.468Z,4.50
2022-09-14T16:48:35.795Z,3.60
2022-09-14T16:51:04.513Z,3.83
2022-09-14T16:53:35.026Z,3.78
2022-09-14T16:56:04.547Z,4.05
2022-09-14T16:58:33.238Z,3.58
2022-09-14T17:01:06.849Z,3.90
2022-09-14T17:03:35.841Z,3.90
2022-09-14T17:06:04.916Z,3.92
2022-09-14T17:08:35.460Z,3.65
2022-09-14T17:11:04.615Z,3.55
2022-09-14T17:13:33.440Z,4.20
2022-09-14T17:16:02.703Z,4.53
2022-09-14T17:18:31.363Z,4.22
2022-09-14T17:21:00.417Z,4.43
2022-09-14T17:23:28.831Z,4.65
2022-09-14T17:25:58.742Z,4.65
2022-09-14T17:28:28.403Z,4.57
2022-09-14T17:30:57.386Z,5.05
2022-09-14T17:33:26.171Z,5.50
2022-09-14T17:35:55.525Z,5.40
2022-09-14T17:38:25.131Z,5.75
2022-09-14T17:40:53.737Z,5.10
2022-09-14T17:43:23.485Z,5.22
2022-09-14T17:45:55.184Z,4.68
2022-09-14T17:48:24.622Z,5.10
2022-09-14T17:50:52.966Z,4.57
2022-09-14T17:53:21.968Z,4.07
2022-09-14T17:55:50.650Z,4.40
2022-09-14T17:58:19.829Z,4.18
2022-09-14T18:00:50.490Z,3.97
2022-09-14T18:03:19.049Z,3.75
2022-09-14T18:05:55.516Z,3.28
2022-09-14T18:08:23.916Z,3.30
2022-09-14T18:10:52.341Z,3.72
2022-09-14T18:13:20.737Z,3.15
2022-09-14T18:15:56.089Z,4.22
2022-09-14T18:18:24.468Z,3.90
2022-09-14T18:20:52.866Z,4.13
2022-09-14T18:23:21.775Z,3.78
2022-09-14T18:25:50.200Z,4.05
2022-09-14T18:28:18.551Z,3.78
2022-09-14T18:30:46.885Z,4.40
2022-09-14T18:33:16.736Z,4.38
2022-09-14T18:35:45.372Z,5.38
2022-09-14T18:38:13.998Z,4.90
2022-09-14T18:40:42.341Z,5.50
2022-09-14T18:43:10.699Z,5.63
2022-09-14T18:45:39.070Z,5.60
2022-09-14T18:48:07.428Z,5.10
2022-09-14T18:50:37.126Z,5.47
2022-09-14T18:53:05.527Z,5.10
2022-09-14T18:55:34.492Z,5.50
2022-09-14T18:58:03.083Z,5.85
2022-09-14T19:00:32.256Z,6.63
2022-09-14T19:03:00.887Z,5.60
2022-09-14T19:05:32.027Z,5.47
2022-09-14T19:08:02.228Z,5.95
2022-09-14T19:10:31.459Z,5.82
2022-09-14T19:12:59.833Z,5.25
2022-09-14T19:15:32.452Z,6.45
2022-09-14T19:18:01.278Z,6.60
2022-09-14T19:20:48.785Z,6.80
2022-09-14T19:23:20.745Z,6.57
2022-09-14T19:25:49.052Z,6.35
2022-09-14T19:28:17.730Z,6.20
2022-09-14T19:30:46.582Z,6.85
2022-09-14T19:33:15.070Z,7.03
2022-09-14T19:35:43.442Z,6.70
2022-09-14T19:38:11.794Z,6.63
2022-09-14T19:40:41.505Z,5.80
2022-09-14T19:43:12.522Z,6.45
2022-09-14T19:45:40.887Z,7.05
2022-09-14T19:48:09.234Z,6.80
2022-09-14T19:50:37.613Z,7.03
2022-09-14T19:53:06.065Z,6.47
2022-09-14T19:55:35.056Z,6.47
2022-09-14T19:58:04.880Z,6.80
2022-09-14T20:00:33.220Z,7.28
2022-09-14T20:03:01.676Z,7.15
2022-09-14T20:05:30.101Z,7.20
2022-09-14T20:07:58.481Z,7.07
2022-09-14T20:10:26.848Z,7.28
2022-09-14T20:12:55.564Z,7.68
2022-09-14T20:15:25.318Z,7.88
2022-09-14T20:17:55.808Z,7.78
2022-09-14T20:20:24.145Z,8.80
2022-09-14T20:22:52.514Z,8.52
2022-09-14T20:25:20.853Z,10.07
2022-09-14T20:27:49.297Z,9.70
2022-09-14T20:30:18.289Z,9.55
2022-09-14T20:32:48.007Z,10.55
2022-09-14T20:35:16.427Z,10.15
2022-09-14T20:37:44.919Z,9.85
2022-09-14T20:40:13.285Z,10.02
2022-09-14T20:42:41.713Z,9.95
2022-09-14T20:45:10.869Z,10.05
2022-09-14T20:47:39.596Z,10.05
2022-09-14T20:50:09.760Z,9.25
2022-09-14T20:52:38.263Z,8.13
2022-09-14T20:55:07.063Z,7.65
2022-09-14T20:57:35.417Z,8.02
2022-09-14T21:00:03.894Z,7.15
2022-09-14T21:02:32.406Z,7.63
2022-09-14T21:05:00.770Z,7.00
2022-09-14T21:07:30.494Z,7.38
2022-09-14T21:09:59.334Z,7.38
2022-09-14T21:12:27.714Z,7.55
2022-09-14T21:14:56.045Z,7.03
2022-09-14T21:17:24.395Z,7.43
2022-09-14T21:19:52.764Z,7.65
2022-09-14T21:22:26.605Z,8.10
2022-09-14T21:24:56.303Z,7.97
2022-09-14T21:27:24.828Z,7.82
2022-09-14T21:29:53.140Z,7.18
2022-09-14T21:32:21.749Z,7.40
2022-09-14T21:34:50.519Z,7.55
2022-09-14T21:37:18.979Z,7.95
2022-09-14T21:39:47.742Z,7.20
2022-09-14T21:42:17.742Z,6.93
2022-09-14T21:44:46.096Z,7.95
2022-09-14T21:47:14.527Z,7.80
2022-09-14T21:49:42.960Z,8.63
2022-09-14T21:52:11.372Z,8.35
2022-09-14T21:54:40.393Z,7.68
2022-09-14T21:57:08.762Z,7.57
2022-09-14T21:59:38.850Z,8.18
2022-09-14T22:02:07.418Z,7.97
2022-09-14T22:04:35.890Z,8.23
2022-09-14T22:07:04.264Z,8.48
2022-09-14T22:09:32.673Z,8.18
2022-09-14T22:12:01.193Z,8.25
2022-09-14T22:14:30.367Z,7.55
2022-09-14T22:17:00.187Z,8.25
2022-09-14T22:19:29.680Z,8.00
2022-09-14T22:21:58.349Z,8.40
2022-09-14T22:24:28.057Z,7.70
2022-09-14T22:26:57.415Z,7.38
2022-09-14T22:29:26.074Z,7.63
2022-09-14T22:31:54.470Z,7.60
2022-09-14T22:34:24.538Z,7.63
2022-09-14T22:36:52.905Z,7.72
2022-09-14T22:39:21.284Z,7.25
2022-09-14T22:41:49.637Z,7.45
2022-09-14T22:44:17.958Z,7.40
2022-09-14T22:46:46.257Z,7.70
2022-09-14T22:49:14.606Z,7.75
2022-09-14T22:51:44.297Z,8.07
2022-09-14T22:54:12.657Z,8.15
2022-09-14T22:56:41.475Z,8.10
2022-09-14T22:59:10.696Z,8.13
2022-09-14T23:01:40.273Z,7.95
2022-09-14T23:04:09.724Z,8.25
2022-09-14T23:06:39.657Z,8.68
2022-09-14T23:09:09.936Z,8.30
2022-09-14T23:11:38.536Z,9.02
2022-09-14T23:14:06.932Z,9.75
2022-09-14T23:16:35.356Z,9.50
2022-09-14T23:19:07.792Z,9.70
2022-09-14T23:21:36.785Z,9.93
2022-09-14T23:24:06.625Z,9.40
2022-09-14T23:26:36.327Z,9.48
2022-09-14T23:29:05.908Z,9.02
2022-09-14T23:31:34.706Z,8.48
2022-09-14T23:34:03.989Z,9.05
2022-09-14T23:36:32.761Z,9.13
2022-09-14T23:39:01.398Z,8.82
2022-09-14T23:41:30.245Z,9.23
2022-09-14T23:44:00.920Z,9.00
2022-09-14T23:46:29.425Z,8.90
2022-09-14T23:48:57.883Z,9.82
2022-09-14T23:51:26.193Z,9.30
2022-09-14T23:53:54.593Z,8.57
2022-09-14T23:56:22.928Z,9.88
2022-09-14T23:58:51.386Z,9.30
